sensor_id;sensor_type;location;lat;lon;timestamp;temperature;humidity
24450;DHT22;13349;50.984;5.822;2024-03-22T00:01:55;12.10;99.90
24450;DHT22;13349;50.984;5.822;2024-03-22T00:04:22;12.10;99.90
24450;DHT22;13349;50.984;5.822;2024-03-22T00:06:49;12.10;99.90
24450;DHT22;13349;50.984;5.822;2024-03-22T00:09:16;12.00;99.90
24450;DHT22;13349;50.984;5.822;2024-03-22T00:11:43;12.00;99.90
24450;DHT22;13349;50.984;5.822;2024-03-22T00:14:10;12.00;99.90
24450;DHT22;13349;50.984;5.822;2024-03-22T00:16:36;12.00;99.90
24450;DHT22;13349;50.984;5.822;2024-03-22T00:19:05;12.10;99.90
24450;DHT22;13349;50.984;5.822;2024-03-22T00:21:31;12.10;99.90
24450;DHT22;13349;50.984;5.822;2024-03-22T00:23:58;12.20;99.90
24450;DHT22;13349;50.984;5.822;2024-03-22T00:26:24;12.20;99.90
24450;DHT22;13349;50.984;5.822;2024-03-22T00:28:51;12.20;99.90
24450;DHT22;13349;50.984;5.822;2024-03-22T00:31:16;12.30;99.90
24450;DHT22;13349;50.984;5.822;2024-03-22T00:33:44;12.50;99.90
24450;DHT22;13349;50.984;5.822;2024-03-22T00:36:11;12.60;99.90
24450;DHT22;13349;50.984;5.822;2024-03-22T00:38:38;12.60;99.90
24450;DHT22;13349;50.984;5.822;2024-03-22T00:41:04;12.70;99.90
24450;DHT22;13349;50.984;5.822;2024-03-22T00:43:31;12.70;99.90
24450;DHT22;13349;50.984;5.822;2024-03-22T00:45:57;12.70;99.90
24450;DHT22;13349;50.984;5.822;2024-03-22T00:48:26;12.70;99.90
24450;DHT22;13349;50.984;5.822;2024-03-22T00:50:51;12.70;99.90
24450;DHT22;13349;50.984;5.822;2024-03-22T00:53:20;12.70;99.90
24450;DHT22;13349;50.984;5.822;2024-03-22T00:55:46;12.70;99.90
24450;DHT22;13349;50.984;5.822;2024-03-22T00:58:17;12.80;99.90
24450;DHT22;13349;50.984;5.822;2024-03-22T01:00:43;12.70;99.90
24450;DHT22;13349;50.984;5.822;2024-03-22T01:03:11;12.70;99.90
24450;DHT22;13349;50.984;5.822;2024-03-22T01:05:36;12.70;99.90
24450;DHT22;13349;50.984;5.822;2024-03-22T01:08:04;12.80;99.90
24450;DHT22;13349;50.984;5.822;2024-03-22T01:10:32;12.80;99.90
24450;DHT22;13349;50.984;5.822;2024-03-22T01:12:59;12.80;99.90
24450;DHT22;13349;50.984;5.822;2024-03-22T01:15:25;12.80;99.90
24450;DHT22;13349;50.984;5.822;2024-03-22T01:17:53;12.70;99.90
24450;DHT22;13349;50.984;5.822;2024-03-22T01:20:18;12.50;99.90
24450;DHT22;13349;50.984;5.822;2024-03-22T01:22:45;12.50;99.90
24450;DHT22;13349;50.984;5.822;2024-03-22T01:25:11;12.50;99.90
24450;DHT22;13349;50.984;5.822;2024-03-22T01:27:40;12.40;99.90
24450;DHT22;13349;50.984;5.822;2024-03-22T01:30:06;12.40;99.90
24450;DHT22;13349;50.984;5.822;2024-03-22T01:32:34;12.50;99.90
24450;DHT22;13349;50.984;5.822;2024-03-22T01:34:59;12.50;99.90
24450;DHT22;13349;50.984;5.822;2024-03-22T01:37:26;12.50;99.90
24450;DHT22;13349;50.984;5.822;2024-03-22T01:39:52;12.50;99.90
24450;DHT22;13349;50.984;5.822;2024-03-22T01:42:19;12.60;99.90
24450;DHT22;13349;50.984;5.822;2024-03-22T01:44:46;12.40;99.90
24450;DHT22;13349;50.984;5.822;2024-03-22T01:47:13;12.40;99.90
24450;DHT22;13349;50.984;5.822;2024-03-22T01:49:39;12.50;99.90
24450;DHT22;13349;50.984;5.822;2024-03-22T01:52:06;12.50;99.90
24450;DHT22;13349;50.984;5.822;2024-03-22T01:54:32;12.50;99.90
24450;DHT22;13349;50.984;5.822;2024-03-22T01:56:58;12.50;99.90
24450;DHT22;13349;50.984;5.822;2024-03-22T01:59:24;12.60;99.90
24450;DHT22;13349;50.984;5.822;2024-03-22T02:01:54;12.60;99.90
24450;DHT22;13349;50.984;5.822;2024-03-22T02:04:19;12.50;99.90
24450;DHT22;13349;50.984;5.822;2024-03-22T02:06:46;12.60;99.90
24450;DHT22;13349;50.984;5.822;2024-03-22T02:09:12;12.70;99.90
24450;DHT22;13349;50.984;5.822;2024-03-22T02:11:40;12.60;99.90
24450;DHT22;13349;50.984;5.822;2024-03-22T02:14:06;12.60;99.90
24450;DHT22;13349;50.984;5.822;2024-03-22T02:16:33;12.60;99.90
24450;DHT22;13349;50.984;5.822;2024-03-22T02:19:00;12.70;99.90
24450;DHT22;13349;50.984;5.822;2024-03-22T02:21:27;12.70;99.90
24450;DHT22;13349;50.984;5.822;2024-03-22T02:23:54;12.70;99.90
24450;DHT22;13349;50.984;5.822;2024-03-22T02:26:21;12.60;99.90
24450;DHT22;13349;50.984;5.822;2024-03-22T02:28:47;12.60;99.90
24450;DHT22;13349;50.984;5.822;2024-03-22T02:31:14;12.50;99.90
24450;DHT22;13349;50.984;5.822;2024-03-22T02:33:40;12.50;99.90
24450;DHT22;13349;50.984;5.822;2024-03-22T02:36:07;12.50;99.90
24450;DHT22;13349;50.984;5.822;2024-03-22T02:38:33;12.50;99.90
24450;DHT22;13349;50.984;5.822;2024-03-22T02:41:01;12.50;99.90
24450;DHT22;13349;50.984;5.822;2024-03-22T02:43:27;12.50;99.90
24450;DHT22;13349;50.984;5.822;2024-03-22T02:45:54;12.50;99.90
24450;DHT22;13349;50.984;5.822;2024-03-22T02:48:20;12.40;99.90
24450;DHT22;13349;50.984;5.822;2024-03-22T02:50:47;12.50;99.90
24450;DHT22;13349;50.984;5.822;2024-03-22T02:53:13;12.40;99.90
24450;DHT22;13349;50.984;5.822;2024-03-22T02:55:40;12.40;99.90
24450;DHT22;13349;50.984;5.822;2024-03-22T02:58:07;12.50;99.90
24450;DHT22;13349;50.984;5.822;2024-03-22T03:00:35;12.60;99.90
24450;DHT22;13349;50.984;5.822;2024-03-22T03:03:02;12.60;99.90
24450;DHT22;13349;50.984;5.822;2024-03-22T03:05:32;12.50;99.90
24450;DHT22;13349;50.984;5.822;2024-03-22T03:07:58;12.50;99.90
24450;DHT22;13349;50.984;5.822;2024-03-22T03:10:25;12.50;99.90
24450;DHT22;13349;50.984;5.822;2024-03-22T03:12:51;12.40;99.90
24450;DHT22;13349;50.984;5.822;2024-03-22T03:15:19;12.40;99.90
24450;DHT22;13349;50.984;5.822;2024-03-22T03:17:45;12.30;99.90
24450;DHT22;13349;50.984;5.822;2024-03-22T03:20:12;12.40;99.90
24450;DHT22;13349;50.984;5.822;2024-03-22T03:22:38;12.40;99.90
24450;DHT22;13349;50.984;5.822;2024-03-22T03:25:06;12.30;99.90
24450;DHT22;13349;50.984;5.822;2024-03-22T03:27:32;12.20;99.90
24450;DHT22;13349;50.984;5.822;2024-03-22T03:29:59;12.20;99.90
24450;DHT22;13349;50.984;5.822;2024-03-22T03:32:26;12.10;99.90
24450;DHT22;13349;50.984;5.822;2024-03-22T03:34:53;11.90;99.90
24450;DHT22;13349;50.984;5.822;2024-03-22T03:37:19;11.90;99.90
24450;DHT22;13349;50.984;5.822;2024-03-22T03:39:46;11.80;99.90
24450;DHT22;13349;50.984;5.822;2024-03-22T03:42:12;11.80;99.90
24450;DHT22;13349;50.984;5.822;2024-03-22T03:44:38;11.80;99.90
24450;DHT22;13349;50.984;5.822;2024-03-22T03:47:04;11.70;99.90
24450;DHT22;13349;50.984;5.822;2024-03-22T03:49:33;11.70;99.90
24450;DHT22;13349;50.984;5.822;2024-03-22T03:51:59;11.80;99.90
24450;DHT22;13349;50.984;5.822;2024-03-22T03:54:26;11.90;99.90
24450;DHT22;13349;50.984;5.822;2024-03-22T03:56:51;11.90;99.90
24450;DHT22;13349;50.984;5.822;2024-03-22T03:59:21;11.90;99.90
24450;DHT22;13349;50.984;5.822;2024-03-22T04:01:47;11.90;99.90
24450;DHT22;13349;50.984;5.822;2024-03-22T04:04:14;12.10;99.90
24450;DHT22;13349;50.984;5.822;2024-03-22T04:06:41;12.20;99.90
24450;DHT22;13349;50.984;5.822;2024-03-22T04:09:10;12.10;99.90
24450;DHT22;13349;50.984;5.822;2024-03-22T04:11:36;12.10;99.90
24450;DHT22;13349;50.984;5.822;2024-03-22T04:14:03;12.20;99.90
24450;DHT22;13349;50.984;5.822;2024-03-22T04:16:30;12.20;99.90
24450;DHT22;13349;50.984;5.822;2024-03-22T04:18:57;12.30;99.90
24450;DHT22;13349;50.984;5.822;2024-03-22T04:21:23;12.40;99.90
24450;DHT22;13349;50.984;5.822;2024-03-22T04:23:52;12.40;99.90
24450;DHT22;13349;50.984;5.822;2024-03-22T04:26:17;12.40;99.90
24450;DHT22;13349;50.984;5.822;2024-03-22T04:28:44;12.30;99.90
24450;DHT22;13349;50.984;5.822;2024-03-22T04:31:10;12.30;99.90
24450;DHT22;13349;50.984;5.822;2024-03-22T04:33:37;12.30;99.90
24450;DHT22;13349;50.984;5.822;2024-03-22T04:36:03;12.20;99.90
24450;DHT22;13349;50.984;5.822;2024-03-22T04:38:30;12.40;99.90
24450;DHT22;13349;50.984;5.822;2024-03-22T04:40:59;12.40;99.90
24450;DHT22;13349;50.984;5.822;2024-03-22T04:43:27;12.30;99.90
24450;DHT22;13349;50.984;5.822;2024-03-22T04:45:54;12.50;99.90
24450;DHT22;13349;50.984;5.822;2024-03-22T04:48:20;12.40;99.90
24450;DHT22;13349;50.984;5.822;2024-03-22T04:50:48;12.40;99.90
24450;DHT22;13349;50.984;5.822;2024-03-22T04:53:15;12.40;99.90
24450;DHT22;13349;50.984;5.822;2024-03-22T04:55:42;12.40;99.90
24450;DHT22;13349;50.984;5.822;2024-03-22T04:58:13;12.50;99.90
24450;DHT22;13349;50.984;5.822;2024-03-22T05:00:39;12.50;99.90
24450;DHT22;13349;50.984;5.822;2024-03-22T05:03:05;12.50;99.90
24450;DHT22;13349;50.984;5.822;2024-03-22T05:05:33;12.50;99.90
24450;DHT22;13349;50.984;5.822;2024-03-22T05:07:59;12.50;99.90
24450;DHT22;13349;50.984;5.822;2024-03-22T05:10:26;12.60;99.90
24450;DHT22;13349;50.984;5.822;2024-03-22T05:12:51;12.60;99.90
24450;DHT22;13349;50.984;5.822;2024-03-22T05:15:20;12.60;99.90
24450;DHT22;13349;50.984;5.822;2024-03-22T05:17:46;12.60;99.90
24450;DHT22;13349;50.984;5.822;2024-03-22T05:20:13;12.60;99.90
24450;DHT22;13349;50.984;5.822;2024-03-22T05:22:39;12.60;99.90
24450;DHT22;13349;50.984;5.822;2024-03-22T05:25:06;12.60;99.90
24450;DHT22;13349;50.984;5.822;2024-03-22T05:27:33;12.60;99.90
24450;DHT22;13349;50.984;5.822;2024-03-22T05:30:00;12.60;99.90
24450;DHT22;13349;50.984;5.822;2024-03-22T05:32:28;12.60;99.90
24450;DHT22;13349;50.984;5.822;2024-03-22T05:34:55;12.50;99.90
24450;DHT22;13349;50.984;5.822;2024-03-22T05:37:21;12.50;99.90
24450;DHT22;13349;50.984;5.822;2024-03-22T05:39:48;12.40;99.90
24450;DHT22;13349;50.984;5.822;2024-03-22T05:42:14;12.40;99.90
24450;DHT22;13349;50.984;5.822;2024-03-22T05:44:41;12.40;99.90
24450;DHT22;13349;50.984;5.822;2024-03-22T05:47:07;12.40;99.90
24450;DHT22;13349;50.984;5.822;2024-03-22T05:49:35;12.30;99.90
24450;DHT22;13349;50.984;5.822;2024-03-22T05:52:01;12.40;99.90
24450;DHT22;13349;50.984;5.822;2024-03-22T05:54:28;12.40;99.90
24450;DHT22;13349;50.984;5.822;2024-03-22T05:56:54;12.40;99.90
24450;DHT22;13349;50.984;5.822;2024-03-22T05:59:21;12.30;99.90
24450;DHT22;13349;50.984;5.822;2024-03-22T06:01:47;12.30;99.90
24450;DHT22;13349;50.984;5.822;2024-03-22T06:04:14;12.40;99.90
24450;DHT22;13349;50.984;5.822;2024-03-22T06:06:41;12.40;99.90
24450;DHT22;13349;50.984;5.822;2024-03-22T06:09:08;12.40;99.90
24450;DHT22;13349;50.984;5.822;2024-03-22T06:11:36;12.40;99.90
24450;DHT22;13349;50.984;5.822;2024-03-22T06:14:03;12.40;99.90
24450;DHT22;13349;50.984;5.822;2024-03-22T06:16:29;12.50;99.90
24450;DHT22;13349;50.984;5.822;2024-03-22T06:18:56;12.40;99.90
24450;DHT22;13349;50.984;5.822;2024-03-22T06:21:22;12.40;99.90
24450;DHT22;13349;50.984;5.822;2024-03-22T06:23:52;12.40;99.90
24450;DHT22;13349;50.984;5.822;2024-03-22T06:26:18;12.40;99.90
24450;DHT22;13349;50.984;5.822;2024-03-22T06:28:45;12.40;99.90
24450;DHT22;13349;50.984;5.822;2024-03-22T06:31:12;12.40;99.90
24450;DHT22;13349;50.984;5.822;2024-03-22T06:33:39;12.40;99.90
24450;DHT22;13349;50.984;5.822;2024-03-22T06:36:05;12.40;99.90
24450;DHT22;13349;50.984;5.822;2024-03-22T06:38:31;12.40;99.90
24450;DHT22;13349;50.984;5.822;2024-03-22T06:40:59;12.40;99.90
24450;DHT22;13349;50.984;5.822;2024-03-22T06:43:26;12.40;99.90
24450;DHT22;13349;50.984;5.822;2024-03-22T06:45:51;12.50;99.90
24450;DHT22;13349;50.984;5.822;2024-03-22T06:48:18;12.60;99.90
24450;DHT22;13349;50.984;5.822;2024-03-22T06:50:44;12.60;99.90
24450;DHT22;13349;50.984;5.822;2024-03-22T06:53:11;12.70;99.90
24450;DHT22;13349;50.984;5.822;2024-03-22T06:55:37;12.70;99.90
24450;DHT22;13349;50.984;5.822;2024-03-22T06:58:05;12.70;99.90
24450;DHT22;13349;50.984;5.822;2024-03-22T07:00:31;12.70;99.90
24450;DHT22;13349;50.984;5.822;2024-03-22T07:02:59;12.70;99.90
24450;DHT22;13349;50.984;5.822;2024-03-22T07:05:27;12.70;99.90
24450;DHT22;13349;50.984;5.822;2024-03-22T07:07:54;12.70;99.90
24450;DHT22;13349;50.984;5.822;2024-03-22T07:10:22;12.70;99.90
24450;DHT22;13349;50.984;5.822;2024-03-22T07:12:53;12.80;99.90
24450;DHT22;13349;50.984;5.822;2024-03-22T07:15:20;12.80;99.90
24450;DHT22;13349;50.984;5.822;2024-03-22T07:17:47;12.80;99.90
24450;DHT22;13349;50.984;5.822;2024-03-22T07:20:13;12.80;99.90
24450;DHT22;13349;50.984;5.822;2024-03-22T07:22:40;12.80;99.90
24450;DHT22;13349;50.984;5.822;2024-03-22T07:25:06;12.80;99.90
24450;DHT22;13349;50.984;5.822;2024-03-22T07:27:34;12.80;99.90
24450;DHT22;13349;50.984;5.822;2024-03-22T07:30:00;12.80;99.90
24450;DHT22;13349;50.984;5.822;2024-03-22T07:32:29;12.80;99.90
24450;DHT22;13349;50.984;5.822;2024-03-22T07:34:55;12.80;99.90
24450;DHT22;13349;50.984;5.822;2024-03-22T07:37:22;12.90;99.90
24450;DHT22;13349;50.984;5.822;2024-03-22T07:39:48;12.90;99.90
24450;DHT22;13349;50.984;5.822;2024-03-22T07:42:15;13.00;99.90
24450;DHT22;13349;50.984;5.822;2024-03-22T07:44:41;13.00;99.90
24450;DHT22;13349;50.984;5.822;2024-03-22T07:47:08;13.10;99.90
24450;DHT22;13349;50.984;5.822;2024-03-22T07:49:35;13.10;99.90
24450;DHT22;13349;50.984;5.822;2024-03-22T07:52:02;13.20;99.90
24450;DHT22;13349;50.984;5.822;2024-03-22T07:54:28;13.10;99.90
24450;DHT22;13349;50.984;5.822;2024-03-22T07:56:55;13.00;99.90
24450;DHT22;13349;50.984;5.822;2024-03-22T07:59:21;13.00;99.90
24450;DHT22;13349;50.984;5.822;2024-03-22T08:01:48;13.00;99.90
24450;DHT22;13349;50.984;5.822;2024-03-22T08:04:14;13.00;99.90
24450;DHT22;13349;50.984;5.822;2024-03-22T08:06:42;13.00;99.90
24450;DHT22;13349;50.984;5.822;2024-03-22T08:09:08;13.00;99.90
24450;DHT22;13349;50.984;5.822;2024-03-22T08:11:35;13.00;99.90
24450;DHT22;13349;50.984;5.822;2024-03-22T08:14:01;13.10;99.90
24450;DHT22;13349;50.984;5.822;2024-03-22T08:16:28;13.20;99.90
24450;DHT22;13349;50.984;5.822;2024-03-22T08:18:55;13.20;99.90
24450;DHT22;13349;50.984;5.822;2024-03-22T08:21:22;13.30;99.90
24450;DHT22;13349;50.984;5.822;2024-03-22T08:23:49;13.50;99.90
24450;DHT22;13349;50.984;5.822;2024-03-22T08:26:16;13.70;1.80
24450;DHT22;13349;50.984;5.822;2024-03-22T08:28:42;13.90;1.00
24450;DHT22;13349;50.984;5.822;2024-03-22T08:31:09;14.00;1.00
24450;DHT22;13349;50.984;5.822;2024-03-22T08:33:35;13.80;1.00
24450;DHT22;13349;50.984;5.822;2024-03-22T08:36:02;13.80;99.90
24450;DHT22;13349;50.984;5.822;2024-03-22T08:38:28;13.90;1.00
24450;DHT22;13349;50.984;5.822;2024-03-22T08:40:56;14.00;99.90
24450;DHT22;13349;50.984;5.822;2024-03-22T08:43:22;13.90;1.00
24450;DHT22;13349;50.984;5.822;2024-03-22T08:45:51;14.00;99.90
24450;DHT22;13349;50.984;5.822;2024-03-22T08:48:17;14.00;99.90
24450;DHT22;13349;50.984;5.822;2024-03-22T08:50:44;14.20;1.00
24450;DHT22;13349;50.984;5.822;2024-03-22T08:53:10;14.30;1.00
24450;DHT22;13349;50.984;5.822;2024-03-22T08:55:37;14.60;99.90
24450;DHT22;13349;50.984;5.822;2024-03-22T08:58:04;14.80;74.60
24450;DHT22;13349;50.984;5.822;2024-03-22T09:00:31;14.70;1.00
24450;DHT22;13349;50.984;5.822;2024-03-22T09:02:57;14.40;99.90
24450;DHT22;13349;50.984;5.822;2024-03-22T09:05:24;14.50;99.90
24450;DHT22;13349;50.984;5.822;2024-03-22T09:07:50;14.50;99.90
24450;DHT22;13349;50.984;5.822;2024-03-22T09:10:18;14.40;23.00
24450;DHT22;13349;50.984;5.822;2024-03-22T09:12:44;14.60;99.90
24450;DHT22;13349;50.984;5.822;2024-03-22T09:15:12;14.50;1.00
24450;DHT22;13349;50.984;5.822;2024-03-22T09:17:38;14.30;1.00
24450;DHT22;13349;50.984;5.822;2024-03-22T09:20:05;14.20;1.00
24450;DHT22;13349;50.984;5.822;2024-03-22T09:22:33;14.30;1.00
24450;DHT22;13349;50.984;5.822;2024-03-22T09:25:00;14.60;1.00
24450;DHT22;13349;50.984;5.822;2024-03-22T09:27:26;14.60;1.00
24450;DHT22;13349;50.984;5.822;2024-03-22T09:29:53;14.40;1.00
24450;DHT22;13349;50.984;5.822;2024-03-22T09:32:20;14.40;99.90
24450;DHT22;13349;50.984;5.822;2024-03-22T09:34:48;14.60;99.90
24450;DHT22;13349;50.984;5.822;2024-03-22T09:37:14;14.70;99.90
24450;DHT22;13349;50.984;5.822;2024-03-22T09:39:41;14.70;70.60
24450;DHT22;13349;50.984;5.822;2024-03-22T09:42:07;14.80;1.00
24450;DHT22;13349;50.984;5.822;2024-03-22T09:44:34;14.70;1.00
24450;DHT22;13349;50.984;5.822;2024-03-22T09:47:00;14.90;1.00
24450;DHT22;13349;50.984;5.822;2024-03-22T09:49:29;15.00;1.00
24450;DHT22;13349;50.984;5.822;2024-03-22T09:51:55;14.80;1.00
24450;DHT22;13349;50.984;5.822;2024-03-22T09:54:23;14.40;1.00
24450;DHT22;13349;50.984;5.822;2024-03-22T09:56:49;14.20;1.00
24450;DHT22;13349;50.984;5.822;2024-03-22T09:59:17;14.20;1.00
24450;DHT22;13349;50.984;5.822;2024-03-22T10:01:43;14.50;1.00
24450;DHT22;13349;50.984;5.822;2024-03-22T10:04:11;14.60;1.00
24450;DHT22;13349;50.984;5.822;2024-03-22T10:06:38;14.70;1.00
24450;DHT22;13349;50.984;5.822;2024-03-22T10:09:05;14.60;1.00
24450;DHT22;13349;50.984;5.822;2024-03-22T10:11:31;14.60;1.00
24450;DHT22;13349;50.984;5.822;2024-03-22T10:13:59;14.30;99.90
24450;DHT22;13349;50.984;5.822;2024-03-22T10:16:25;14.20;99.90
24450;DHT22;13349;50.984;5.822;2024-03-22T10:18:52;14.10;99.90
24450;DHT22;13349;50.984;5.822;2024-03-22T10:21:19;14.20;1.00
24450;DHT22;13349;50.984;5.822;2024-03-22T10:23:48;14.20;99.90
24450;DHT22;13349;50.984;5.822;2024-03-22T10:26:16;14.50;99.90
24450;DHT22;13349;50.984;5.822;2024-03-22T10:28:46;14.50;99.90
24450;DHT22;13349;50.984;5.822;2024-03-22T10:31:12;14.70;1.00
24450;DHT22;13349;50.984;5.822;2024-03-22T10:33:40;14.80;1.00
24450;DHT22;13349;50.984;5.822;2024-03-22T10:36:06;15.00;1.00
24450;DHT22;13349;50.984;5.822;2024-03-22T10:38:33;15.20;1.00
24450;DHT22;13349;50.984;5.822;2024-03-22T10:41:03;14.90;1.00
24450;DHT22;13349;50.984;5.822;2024-03-22T10:43:31;15.30;99.90
24450;DHT22;13349;50.984;5.822;2024-03-22T10:45:59;15.20;99.90
24450;DHT22;13349;50.984;5.822;2024-03-22T10:48:27;15.10;99.90
24450;DHT22;13349;50.984;5.822;2024-03-22T10:50:55;15.20;99.90
24450;DHT22;13349;50.984;5.822;2024-03-22T10:53:23;15.40;93.70
24450;DHT22;13349;50.984;5.822;2024-03-22T10:55:50;15.40;11.40
24450;DHT22;13349;50.984;5.822;2024-03-22T10:58:20;15.40;11.70
24450;DHT22;13349;50.984;5.822;2024-03-22T11:00:47;15.40;1.00
24450;DHT22;13349;50.984;5.822;2024-03-22T11:03:14;15.40;1.00
24450;DHT22;13349;50.984;5.822;2024-03-22T11:05:45;15.20;25.20
24450;DHT22;13349;50.984;5.822;2024-03-22T11:08:12;15.10;1.00
24450;DHT22;13349;50.984;5.822;2024-03-22T11:10:39;15.10;1.00
24450;DHT22;13349;50.984;5.822;2024-03-22T11:13:06;15.10;1.00
24450;DHT22;13349;50.984;5.822;2024-03-22T11:15:34;15.10;1.00
24450;DHT22;13349;50.984;5.822;2024-03-22T11:18:01;15.10;1.00
24450;DHT22;13349;50.984;5.822;2024-03-22T11:20:27;15.20;1.00
24450;DHT22;13349;50.984;5.822;2024-03-22T11:22:55;15.40;1.00
24450;DHT22;13349;50.984;5.822;2024-03-22T11:25:21;15.60;1.00
24450;DHT22;13349;50.984;5.822;2024-03-22T11:27:48;15.70;1.00
24450;DHT22;13349;50.984;5.822;2024-03-22T11:30:15;15.60;1.00
24450;DHT22;13349;50.984;5.822;2024-03-22T11:32:44;15.60;1.00
24450;DHT22;13349;50.984;5.822;2024-03-22T11:35:11;15.30;1.00
24450;DHT22;13349;50.984;5.822;2024-03-22T11:37:38;15.30;1.00
24450;DHT22;13349;50.984;5.822;2024-03-22T11:40:05;15.20;1.00
24450;DHT22;13349;50.984;5.822;2024-03-22T11:42:32;15.30;1.00
24450;DHT22;13349;50.984;5.822;2024-03-22T11:44:58;15.30;1.00
24450;DHT22;13349;50.984;5.822;2024-03-22T11:47:25;15.00;1.00
24450;DHT22;13349;50.984;5.822;2024-03-22T11:49:52;14.60;1.00
24450;DHT22;13349;50.984;5.822;2024-03-22T11:52:23;14.50;1.00
24450;DHT22;13349;50.984;5.822;2024-03-22T11:54:50;14.80;1.00
24450;DHT22;13349;50.984;5.822;2024-03-22T11:57:17;15.10;1.00
24450;DHT22;13349;50.984;5.822;2024-03-22T11:59:43;15.00;1.00
24450;DHT22;13349;50.984;5.822;2024-03-22T12:02:10;15.00;1.00
24450;DHT22;13349;50.984;5.822;2024-03-22T12:04:40;15.10;1.00
24450;DHT22;13349;50.984;5.822;2024-03-22T12:07:10;14.90;1.00
24450;DHT22;13349;50.984;5.822;2024-03-22T12:09:36;14.70;1.00
24450;DHT22;13349;50.984;5.822;2024-03-22T12:12:05;15.00;1.00
24450;DHT22;13349;50.984;5.822;2024-03-22T12:14:31;15.20;1.00
24450;DHT22;13349;50.984;5.822;2024-03-22T12:16:58;14.80;1.00
24450;DHT22;13349;50.984;5.822;2024-03-22T12:19:24;14.90;1.00
24450;DHT22;13349;50.984;5.822;2024-03-22T12:21:51;14.90;1.00
24450;DHT22;13349;50.984;5.822;2024-03-22T12:24:18;14.90;8.00
24450;DHT22;13349;50.984;5.822;2024-03-22T12:26:45;15.00;1.00
24450;DHT22;13349;50.984;5.822;2024-03-22T12:29:12;14.80;1.00
24450;DHT22;13349;50.984;5.822;2024-03-22T12:31:40;14.90;20.00
24450;DHT22;13349;50.984;5.822;2024-03-22T12:34:05;14.90;99.90
24450;DHT22;13349;50.984;5.822;2024-03-22T12:36:32;14.80;28.10
24450;DHT22;13349;50.984;5.822;2024-03-22T12:38:58;14.60;99.90
24450;DHT22;13349;50.984;5.822;2024-03-22T12:41:26;14.70;99.90
24450;DHT22;13349;50.984;5.822;2024-03-22T12:43:52;14.70;99.90
24450;DHT22;13349;50.984;5.822;2024-03-22T12:46:19;14.80;99.90
24450;DHT22;13349;50.984;5.822;2024-03-22T12:48:45;15.10;99.90
24450;DHT22;13349;50.984;5.822;2024-03-22T12:51:12;15.10;99.90
24450;DHT22;13349;50.984;5.822;2024-03-22T12:53:38;15.20;92.40
24450;DHT22;13349;50.984;5.822;2024-03-22T12:56:05;15.20;99.90
24450;DHT22;13349;50.984;5.822;2024-03-22T12:58:33;15.20;99.90
24450;DHT22;13349;50.984;5.822;2024-03-22T13:01:00;15.00;99.90
24450;DHT22;13349;50.984;5.822;2024-03-22T13:03:26;15.10;99.90
24450;DHT22;13349;50.984;5.822;2024-03-22T13:05:53;15.40;41.70
24450;DHT22;13349;50.984;5.822;2024-03-22T13:08:19;15.30;1.00
24450;DHT22;13349;50.984;5.822;2024-03-22T13:10:46;15.10;88.90
24450;DHT22;13349;50.984;5.822;2024-03-22T13:13:13;15.30;87.60
24450;DHT22;13349;50.984;5.822;2024-03-22T13:15:43;15.30;91.20
24450;DHT22;13349;50.984;5.822;2024-03-22T13:18:09;15.10;99.90
24450;DHT22;13349;50.984;5.822;2024-03-22T13:20:35;14.90;99.90
24450;DHT22;13349;50.984;5.822;2024-03-22T13:23:01;14.60;99.90
24450;DHT22;13349;50.984;5.822;2024-03-22T13:25:28;14.40;99.90
24450;DHT22;13349;50.984;5.822;2024-03-22T13:27:54;14.10;99.90
24450;DHT22;13349;50.984;5.822;2024-03-22T13:30:21;13.80;1.00
24450;DHT22;13349;50.984;5.822;2024-03-22T13:32:48;13.70;1.00
24450;DHT22;13349;50.984;5.822;2024-03-22T13:35:15;13.90;1.00
24450;DHT22;13349;50.984;5.822;2024-03-22T13:37:41;14.00;1.00
24450;DHT22;13349;50.984;5.822;2024-03-22T13:40:08;14.00;1.00
24450;DHT22;13349;50.984;5.822;2024-03-22T13:42:34;13.90;1.00
24450;DHT22;13349;50.984;5.822;2024-03-22T13:45:01;14.10;1.00
24450;DHT22;13349;50.984;5.822;2024-03-22T13:47:27;13.90;22.60
24450;DHT22;13349;50.984;5.822;2024-03-22T13:49:56;13.80;99.90
24450;DHT22;13349;50.984;5.822;2024-03-22T13:52:21;13.60;99.90
24450;DHT22;13349;50.984;5.822;2024-03-22T13:54:48;13.60;99.90
24450;DHT22;13349;50.984;5.822;2024-03-22T13:57:16;13.50;1.00
24450;DHT22;13349;50.984;5.822;2024-03-22T13:59:42;13.50;1.00
24450;DHT22;13349;50.984;5.822;2024-03-22T14:02:09;13.60;1.00
24450;DHT22;13349;50.984;5.822;2024-03-22T14:04:35;13.50;1.00
24450;DHT22;13349;50.984;5.822;2024-03-22T14:07:03;13.60;1.00
24450;DHT22;13349;50.984;5.822;2024-03-22T14:09:30;13.50;1.00
24450;DHT22;13349;50.984;5.822;2024-03-22T14:11:57;13.50;1.00
24450;DHT22;13349;50.984;5.822;2024-03-22T14:14:24;13.30;1.00
24450;DHT22;13349;50.984;5.822;2024-03-22T14:16:51;13.30;1.00
24450;DHT22;13349;50.984;5.822;2024-03-22T14:19:17;13.10;20.70
24450;DHT22;13349;50.984;5.822;2024-03-22T14:21:44;13.10;99.90
24450;DHT22;13349;50.984;5.822;2024-03-22T14:24:11;13.10;99.90
24450;DHT22;13349;50.984;5.822;2024-03-22T14:26:38;13.00;99.90
24450;DHT22;13349;50.984;5.822;2024-03-22T14:29:07;13.00;1.00
24450;DHT22;13349;50.984;5.822;2024-03-22T14:31:35;12.90;1.00
24450;DHT22;13349;50.984;5.822;2024-03-22T14:34:01;12.90;1.00
24450;DHT22;13349;50.984;5.822;2024-03-22T14:36:28;12.80;1.00
24450;DHT22;13349;50.984;5.822;2024-03-22T14:38:54;12.80;99.90
24450;DHT22;13349;50.984;5.822;2024-03-22T14:41:22;12.80;99.90
24450;DHT22;13349;50.984;5.822;2024-03-22T14:43:48;12.80;99.90
24450;DHT22;13349;50.984;5.822;2024-03-22T14:46:16;12.70;99.90
24450;DHT22;13349;50.984;5.822;2024-03-22T14:48:44;12.70;1.00
24450;DHT22;13349;50.984;5.822;2024-03-22T14:51:11;12.60;1.00
24450;DHT22;13349;50.984;5.822;2024-03-22T14:53:37;12.60;99.90
24450;DHT22;13349;50.984;5.822;2024-03-22T14:56:04;12.60;1.00
24450;DHT22;13349;50.984;5.822;2024-03-22T14:58:31;12.70;1.00
24450;DHT22;13349;50.984;5.822;2024-03-22T15:00:59;12.50;1.00
24450;DHT22;13349;50.984;5.822;2024-03-22T15:03:26;12.40;1.00
24450;DHT22;13349;50.984;5.822;2024-03-22T15:05:54;12.30;1.00
24450;DHT22;13349;50.984;5.822;2024-03-22T15:08:20;12.10;1.00
24450;DHT22;13349;50.984;5.822;2024-03-22T15:10:47;12.00;99.90
24450;DHT22;13349;50.984;5.822;2024-03-22T15:13:14;11.90;99.90
24450;DHT22;13349;50.984;5.822;2024-03-22T15:15:42;11.80;99.90
24450;DHT22;13349;50.984;5.822;2024-03-22T15:18:09;11.80;99.90
24450;DHT22;13349;50.984;5.822;2024-03-22T15:20:36;11.80;99.90
24450;DHT22;13349;50.984;5.822;2024-03-22T15:23:03;11.80;99.90
24450;DHT22;13349;50.984;5.822;2024-03-22T15:25:30;11.80;99.90
24450;DHT22;13349;50.984;5.822;2024-03-22T15:27:56;11.80;99.90
24450;DHT22;13349;50.984;5.822;2024-03-22T15:30:23;11.80;99.90
24450;DHT22;13349;50.984;5.822;2024-03-22T15:32:50;11.70;99.90